sensor_id;sensor_type;location;lat;lon;timestamp;temperature;humidity
11559;DHT22;5835;42.930;25.178;2023-07-16T00:00:29;23.30;1.00
11559;DHT22;5835;42.930;25.178;2023-07-16T00:02:56;22.80;1.00
11559;DHT22;5835;42.930;25.178;2023-07-16T00:05:24;22.60;99.90
11559;DHT22;5835;42.930;25.178;2023-07-16T00:07:51;21.90;99.90
11559;DHT22;5835;42.930;25.178;2023-07-16T00:10:19;21.80;99.90
11559;DHT22;5835;42.930;25.178;2023-07-16T00:12:47;21.70;99.90
11559;DHT22;5835;42.930;25.178;2023-07-16T00:15:16;21.60;99.90
11559;DHT22;5835;42.930;25.178;2023-07-16T00:17:43;21.70;99.90
11559;DHT22;5835;42.930;25.178;2023-07-16T00:20:11;21.80;99.90
11559;DHT22;5835;42.930;25.178;2023-07-16T00:22:39;21.90;99.90
11559;DHT22;5835;42.930;25.178;2023-07-16T00:25:07;22.20;99.90
11559;DHT22;5835;42.930;25.178;2023-07-16T00:27:35;22.40;99.90
11559;DHT22;5835;42.930;25.178;2023-07-16T00:30:03;22.60;99.90
11559;DHT22;5835;42.930;25.178;2023-07-16T00:32:32;22.70;6.00
11559;DHT22;5835;42.930;25.178;2023-07-16T00:35:01;22.90;1.00
11559;DHT22;5835;42.930;25.178;2023-07-16T00:37:28;22.70;9.60
11559;DHT22;5835;42.930;25.178;2023-07-16T00:39:56;22.70;1.00
11559;DHT22;5835;42.930;25.178;2023-07-16T00:42:23;22.60;1.00
11559;DHT22;5835;42.930;25.178;2023-07-16T00:44:51;22.50;1.00
11559;DHT22;5835;42.930;25.178;2023-07-16T00:47:19;22.20;1.00
11559;DHT22;5835;42.930;25.178;2023-07-16T00:49:48;22.10;54.60
11559;DHT22;5835;42.930;25.178;2023-07-16T00:52:18;22.00;47.90
11559;DHT22;5835;42.930;25.178;2023-07-16T00:54:46;22.10;28.70
11559;DHT22;5835;42.930;25.178;2023-07-16T00:57:14;22.30;1.00
11559;DHT22;5835;42.930;25.178;2023-07-16T00:59:42;22.40;1.00
11559;DHT22;5835;42.930;25.178;2023-07-16T01:02:10;22.20;1.00
11559;DHT22;5835;42.930;25.178;2023-07-16T01:04:38;22.10;1.00
11559;DHT22;5835;42.930;25.178;2023-07-16T01:07:11;22.20;41.00
11559;DHT22;5835;42.930;25.178;2023-07-16T01:09:42;22.30;1.00
11559;DHT22;5835;42.930;25.178;2023-07-16T01:12:10;22.20;37.40
11559;DHT22;5835;42.930;25.178;2023-07-16T01:14:38;22.30;1.00
11559;DHT22;5835;42.930;25.178;2023-07-16T01:17:06;22.20;59.10
11559;DHT22;5835;42.930;25.178;2023-07-16T01:19:34;22.20;94.80
11559;DHT22;5835;42.930;25.178;2023-07-16T01:22:22;22.30;58.60
11559;DHT22;5835;42.930;25.178;2023-07-16T01:25:01;22.00;99.90
11559;DHT22;5835;42.930;25.178;2023-07-16T01:28:05;21.80;99.90
11559;DHT22;5835;42.930;25.178;2023-07-16T01:30:38;21.90;99.90
11559;DHT22;5835;42.930;25.178;2023-07-16T01:33:07;22.20;51.50
11559;DHT22;5835;42.930;25.178;2023-07-16T01:35:36;22.30;1.00
11559;DHT22;5835;42.930;25.178;2023-07-16T01:38:05;22.00;1.00
11559;DHT22;5835;42.930;25.178;2023-07-16T01:40:34;21.80;99.90
11559;DHT22;5835;42.930;25.178;2023-07-16T01:43:01;21.90;99.90
11559;DHT22;5835;42.930;25.178;2023-07-16T01:45:28;21.90;45.10
11559;DHT22;5835;42.930;25.178;2023-07-16T01:48:04;22.00;1.00
11559;DHT22;5835;42.930;25.178;2023-07-16T01:50:33;22.00;16.70
11559;DHT22;5835;42.930;25.178;2023-07-16T01:53:01;21.80;73.70
11559;DHT22;5835;42.930;25.178;2023-07-16T01:55:29;21.70;99.90
11559;DHT22;5835;42.930;25.178;2023-07-16T01:57:56;22.00;96.40
11559;DHT22;5835;42.930;25.178;2023-07-16T02:00:24;22.00;6.80
11559;DHT22;5835;42.930;25.178;2023-07-16T02:02:52;22.10;1.00
11559;DHT22;5835;42.930;25.178;2023-07-16T02:05:21;21.80;99.90
11559;DHT22;5835;42.930;25.178;2023-07-16T02:07:48;21.60;99.90
11559;DHT22;5835;42.930;25.178;2023-07-16T02:10:16;21.40;99.90
11559;DHT22;5835;42.930;25.178;2023-07-16T02:12:43;21.30;99.90
11559;DHT22;5835;42.930;25.178;2023-07-16T02:15:11;21.10;99.90
11559;DHT22;5835;42.930;25.178;2023-07-16T02:17:39;20.80;99.90
11559;DHT22;5835;42.930;25.178;2023-07-16T02:20:07;20.80;99.90
11559;DHT22;5835;42.930;25.178;2023-07-16T02:22:37;20.80;99.90
11559;DHT22;5835;42.930;25.178;2023-07-16T02:25:06;20.80;99.90
11559;DHT22;5835;42.930;25.178;2023-07-16T02:27:33;20.80;99.90
11559;DHT22;5835;42.930;25.178;2023-07-16T02:30:01;20.90;99.90
11559;DHT22;5835;42.930;25.178;2023-07-16T02:32:29;21.00;99.90
11559;DHT22;5835;42.930;25.178;2023-07-16T02:34:56;20.90;99.90
11559;DHT22;5835;42.930;25.178;2023-07-16T02:37:24;20.70;99.90
11559;DHT22;5835;42.930;25.178;2023-07-16T02:39:53;20.70;99.90
11559;DHT22;5835;42.930;25.178;2023-07-16T02:42:20;20.70;99.90
11559;DHT22;5835;42.930;25.178;2023-07-16T02:44:48;20.70;99.90
11559;DHT22;5835;42.930;25.178;2023-07-16T02:47:16;20.80;99.90
11559;DHT22;5835;42.930;25.178;2023-07-16T02:49:43;21.00;99.90
11559;DHT22;5835;42.930;25.178;2023-07-16T02:52:11;21.10;99.90
11559;DHT22;5835;42.930;25.178;2023-07-16T02:54:39;21.10;99.90
11559;DHT22;5835;42.930;25.178;2023-07-16T02:57:08;21.00;99.90
11559;DHT22;5835;42.930;25.178;2023-07-16T02:59:35;21.10;99.90
11559;DHT22;5835;42.930;25.178;2023-07-16T03:02:03;21.20;99.90
11559;DHT22;5835;42.930;25.178;2023-07-16T03:04:31;21.30;99.90
11559;DHT22;5835;42.930;25.178;2023-07-16T03:06:58;21.40;99.90
11559;DHT22;5835;42.930;25.178;2023-07-16T03:09:26;21.10;99.90
11559;DHT22;5835;42.930;25.178;2023-07-16T03:11:53;21.10;99.90
11559;DHT22;5835;42.930;25.178;2023-07-16T03:14:22;21.00;99.90
11559;DHT22;5835;42.930;25.178;2023-07-16T03:16:50;21.30;99.90
11559;DHT22;5835;42.930;25.178;2023-07-16T03:19:18;21.40;99.90
11559;DHT22;5835;42.930;25.178;2023-07-16T03:21:45;21.30;99.90
11559;DHT22;5835;42.930;25.178;2023-07-16T03:24:14;21.50;99.90
11559;DHT22;5835;42.930;25.178;2023-07-16T03:26:42;21.60;99.90
11559;DHT22;5835;42.930;25.178;2023-07-16T03:29:09;21.70;99.90
11559;DHT22;5835;42.930;25.178;2023-07-16T03:31:38;21.60;99.90
11559;DHT22;5835;42.930;25.178;2023-07-16T03:34:06;21.60;99.90
11559;DHT22;5835;42.930;25.178;2023-07-16T03:36:34;21.60;99.90
11559;DHT22;5835;42.930;25.178;2023-07-16T03:39:01;21.20;99.90
11559;DHT22;5835;42.930;25.178;2023-07-16T03:41:29;21.20;99.90
11559;DHT22;5835;42.930;25.178;2023-07-16T03:43:56;21.20;99.90
11559;DHT22;5835;42.930;25.178;2023-07-16T03:46:24;21.50;99.90
11559;DHT22;5835;42.930;25.178;2023-07-16T03:48:53;21.60;99.90
11559;DHT22;5835;42.930;25.178;2023-07-16T03:51:23;21.80;99.90
11559;DHT22;5835;42.930;25.178;2023-07-16T03:53:50;21.90;99.90
11559;DHT22;5835;42.930;25.178;2023-07-16T03:56:18;22.10;99.90
11559;DHT22;5835;42.930;25.178;2023-07-16T03:58:45;21.90;99.90
11559;DHT22;5835;42.930;25.178;2023-07-16T04:01:13;22.00;99.90
11559;DHT22;5835;42.930;25.178;2023-07-16T04:03:40;22.20;99.90
11559;DHT22;5835;42.930;25.178;2023-07-16T04:06:10;22.20;99.90
11559;DHT22;5835;42.930;25.178;2023-07-16T04:08:38;22.50;75.20
11559;DHT22;5835;42.930;25.178;2023-07-16T04:11:06;22.50;1.00
11559;DHT22;5835;42.930;25.178;2023-07-16T04:13:33;22.60;35.20
11559;DHT22;5835;42.930;25.178;2023-07-16T04:16:00;22.50;1.00
11559;DHT22;5835;42.930;25.178;2023-07-16T04:18:28;22.40;99.90
11559;DHT22;5835;42.930;25.178;2023-07-16T04:20:56;22.60;35.50
11559;DHT22;5835;42.930;25.178;2023-07-16T04:23:25;22.70;1.00
11559;DHT22;5835;42.930;25.178;2023-07-16T04:25:53;22.70;1.00
11559;DHT22;5835;42.930;25.178;2023-07-16T04:28:21;22.70;1.00
11559;DHT22;5835;42.930;25.178;2023-07-16T04:30:49;22.80;1.00
11559;DHT22;5835;42.930;25.178;2023-07-16T04:33:17;22.80;1.00
11559;DHT22;5835;42.930;25.178;2023-07-16T04:35:45;22.80;1.00
11559;DHT22;5835;42.930;25.178;2023-07-16T04:38:13;22.80;1.00
11559;DHT22;5835;42.930;25.178;2023-07-16T04:40:43;22.90;1.00
11559;DHT22;5835;42.930;25.178;2023-07-16T04:43:11;23.00;99.90
11559;DHT22;5835;42.930;25.178;2023-07-16T04:45:38;23.20;1.00
11559;DHT22;5835;42.930;25.178;2023-07-16T04:48:06;23.30;1.00
11559;DHT22;5835;42.930;25.178;2023-07-16T04:50:34;23.40;1.00
11559;DHT22;5835;42.930;25.178;2023-07-16T04:53:01;23.50;1.00
11559;DHT22;5835;42.930;25.178;2023-07-16T04:55:29;23.60;99.90
11559;DHT22;5835;42.930;25.178;2023-07-16T04:57:58;23.70;99.90
11559;DHT22;5835;42.930;25.178;2023-07-16T05:00:25;23.90;1.00
11559;DHT22;5835;42.930;25.178;2023-07-16T05:02:53;23.90;99.90
11559;DHT22;5835;42.930;25.178;2023-07-16T05:05:21;24.00;99.90
11559;DHT22;5835;42.930;25.178;2023-07-16T05:07:48;24.10;99.90
11559;DHT22;5835;42.930;25.178;2023-07-16T05:10:16;24.20;1.00
11559;DHT22;5835;42.930;25.178;2023-07-16T05:12:43;24.20;1.00
11559;DHT22;5835;42.930;25.178;2023-07-16T05:15:12;24.40;99.90
11559;DHT22;5835;42.930;25.178;2023-07-16T05:17:40;24.40;1.00
11559;DHT22;5835;42.930;25.178;2023-07-16T05:20:08;24.40;1.00
11559;DHT22;5835;42.930;25.178;2023-07-16T05:22:36;24.30;99.90
11559;DHT22;5835;42.930;25.178;2023-07-16T05:25:04;24.50;99.90
11559;DHT22;5835;42.930;25.178;2023-07-16T05:27:32;24.50;99.90
11559;DHT22;5835;42.930;25.178;2023-07-16T05:29:59;24.70;1.00
11559;DHT22;5835;42.930;25.178;2023-07-16T05:32:28;24.80;1.00
11559;DHT22;5835;42.930;25.178;2023-07-16T05:34:56;25.00;99.90
11559;DHT22;5835;42.930;25.178;2023-07-16T05:37:24;25.20;99.90
11559;DHT22;5835;42.930;25.178;2023-07-16T05:39:51;25.40;99.90
11559;DHT22;5835;42.930;25.178;2023-07-16T05:42:19;25.50;99.90
11559;DHT22;5835;42.930;25.178;2023-07-16T05:44:47;25.30;58.80
11559;DHT22;5835;42.930;25.178;2023-07-16T05:47:15;25.50;1.00
11559;DHT22;5835;42.930;25.178;2023-07-16T05:49:44;25.30;99.90
11559;DHT22;5835;42.930;25.178;2023-07-16T05:52:12;25.30;1.00
11559;DHT22;5835;42.930;25.178;2023-07-16T05:54:39;25.10;1.00
11559;DHT22;5835;42.930;25.178;2023-07-16T05:57:07;25.10;99.90
11559;DHT22;5835;42.930;25.178;2023-07-16T05:59:34;25.20;99.90
11559;DHT22;5835;42.930;25.178;2023-07-16T06:02:03;25.10;99.90
11559;DHT22;5835;42.930;25.178;2023-07-16T06:04:31;25.30;1.00
11559;DHT22;5835;42.930;25.178;2023-07-16T06:07:00;25.60;56.30
11559;DHT22;5835;42.930;25.178;2023-07-16T06:09:28;25.90;1.00
11559;DHT22;5835;42.930;25.178;2023-07-16T06:11:55;26.30;1.00
11559;DHT22;5835;42.930;25.178;2023-07-16T06:14:23;26.50;99.90
11559;DHT22;5835;42.930;25.178;2023-07-16T06:16:50;26.80;1.00
11559;DHT22;5835;42.930;25.178;2023-07-16T06:19:18;27.10;99.90
11559;DHT22;5835;42.930;25.178;2023-07-16T06:21:46;27.40;50.80
11559;DHT22;5835;42.930;25.178;2023-07-16T06:24:15;27.40;99.90
11559;DHT22;5835;42.930;25.178;2023-07-16T06:26:43;27.40;99.90
11559;DHT22;5835;42.930;25.178;2023-07-16T06:29:10;27.30;99.90
11559;DHT22;5835;42.930;25.178;2023-07-16T06:31:38;27.30;23.20
11559;DHT22;5835;42.930;25.178;2023-07-16T06:34:05;27.30;3.00
11559;DHT22;5835;42.930;25.178;2023-07-16T06:36:33;27.30;1.00
11559;DHT22;5835;42.930;25.178;2023-07-16T06:39:00;27.10;1.00
11559;DHT22;5835;42.930;25.178;2023-07-16T06:41:29;27.40;1.00
11559;DHT22;5835;42.930;25.178;2023-07-16T06:43:58;27.70;1.00
11559;DHT22;5835;42.930;25.178;2023-07-16T06:46:25;28.00;1.00
11559;DHT22;5835;42.930;25.178;2023-07-16T06:48:53;27.90;99.90
11559;DHT22;5835;42.930;25.178;2023-07-16T06:51:20;28.00;15.10
11559;DHT22;5835;42.930;25.178;2023-07-16T06:53:48;28.20;1.00
11559;DHT22;5835;42.930;25.178;2023-07-16T06:56:16;28.30;1.00
11559;DHT22;5835;42.930;25.178;2023-07-16T06:58:45;28.50;1.00
11559;DHT22;5835;42.930;25.178;2023-07-16T07:01:12;28.70;1.00
11559;DHT22;5835;42.930;25.178;2023-07-16T07:03:40;28.60;1.00
11559;DHT22;5835;42.930;25.178;2023-07-16T07:06:07;28.60;1.00
11559;DHT22;5835;42.930;25.178;2023-07-16T07:08:36;28.50;99.90
11559;DHT22;5835;42.930;25.178;2023-07-16T07:11:04;28.80;99.90
11559;DHT22;5835;42.930;25.178;2023-07-16T07:13:32;29.20;99.90
11559;DHT22;5835;42.930;25.178;2023-07-16T07:16:01;29.40;99.90
11559;DHT22;5835;42.930;25.178;2023-07-16T07:18:28;29.60;99.90
11559;DHT22;5835;42.930;25.178;2023-07-16T07:20:56;29.60;99.90
11559;DHT22;5835;42.930;25.178;2023-07-16T07:23:24;29.40;99.90
11559;DHT22;5835;42.930;25.178;2023-07-16T07:25:52;29.60;99.90
11559;DHT22;5835;42.930;25.178;2023-07-16T07:28:20;29.60;99.90
11559;DHT22;5835;42.930;25.178;2023-07-16T07:30:47;29.70;99.90
11559;DHT22;5835;42.930;25.178;2023-07-16T07:33:16;29.80;99.90
11559;DHT22;5835;42.930;25.178;2023-07-16T07:35:44;29.80;99.90
11559;DHT22;5835;42.930;25.178;2023-07-16T07:38:11;29.70;99.90
11559;DHT22;5835;42.930;25.178;2023-07-16T07:40:39;30.00;99.90
11559;DHT22;5835;42.930;25.178;2023-07-16T07:43:09;30.00;99.90
11559;DHT22;5835;42.930;25.178;2023-07-16T07:45:37;30.20;99.90
11559;DHT22;5835;42.930;25.178;2023-07-16T07:48:05;30.50;41.70
11559;DHT22;5835;42.930;25.178;2023-07-16T07:50:34;30.40;17.70
11559;DHT22;5835;42.930;25.178;2023-07-16T07:53:04;30.20;1.00
11559;DHT22;5835;42.930;25.178;2023-07-16T07:55:33;30.80;4.90
11559;DHT22;5835;42.930;25.178;2023-07-16T07:58:00;31.20;2.60
11559;DHT22;5835;42.930;25.178;2023-07-16T08:00:28;31.10;3.50
11559;DHT22;5835;42.930;25.178;2023-07-16T08:02:55;31.00;2.80
11559;DHT22;5835;42.930;25.178;2023-07-16T08:05:23;31.00;2.70
11559;DHT22;5835;42.930;25.178;2023-07-16T08:07:52;31.20;1.00
11559;DHT22;5835;42.930;25.178;2023-07-16T08:10:21;31.20;1.00
11559;DHT22;5835;42.930;25.178;2023-07-16T08:12:49;31.60;1.00
11559;DHT22;5835;42.930;25.178;2023-07-16T08:15:18;31.50;1.00
11559;DHT22;5835;42.930;25.178;2023-07-16T08:17:45;31.40;1.00
11559;DHT22;5835;42.930;25.178;2023-07-16T08:20:13;31.60;1.00
11559;DHT22;5835;42.930;25.178;2023-07-16T08:22:41;31.50;1.00
11559;DHT22;5835;42.930;25.178;2023-07-16T08:25:10;31.60;1.00
11559;DHT22;5835;42.930;25.178;2023-07-16T08:27:38;31.50;1.00
11559;DHT22;5835;42.930;25.178;2023-07-16T08:30:06;31.70;1.00
11559;DHT22;5835;42.930;25.178;2023-07-16T08:32:34;31.50;1.00
11559;DHT22;5835;42.930;25.178;2023-07-16T08:35:02;31.60;1.00
11559;DHT22;5835;42.930;25.178;2023-07-16T08:37:29;31.70;1.00
11559;DHT22;5835;42.930;25.178;2023-07-16T08:39:57;32.30;1.00
11559;DHT22;5835;42.930;25.178;2023-07-16T08:42:26;32.40;1.00
11559;DHT22;5835;42.930;25.178;2023-07-16T08:44:54;32.10;1.00
11559;DHT22;5835;42.930;25.178;2023-07-16T08:47:22;32.10;1.00
11559;DHT22;5835;42.930;25.178;2023-07-16T08:49:54;32.40;1.00
11559;DHT22;5835;42.930;25.178;2023-07-16T08:52:22;32.50;1.00
11559;DHT22;5835;42.930;25.178;2023-07-16T08:54:50;32.60;1.00
11559;DHT22;5835;42.930;25.178;2023-07-16T08:57:19;33.10;1.00
11559;DHT22;5835;42.930;25.178;2023-07-16T08:59:50;33.50;1.00
11559;DHT22;5835;42.930;25.178;2023-07-16T09:02:18;32.90;1.00
11559;DHT22;5835;42.930;25.178;2023-07-16T09:04:47;32.90;1.00
11559;DHT22;5835;42.930;25.178;2023-07-16T09:07:15;32.80;1.00
11559;DHT22;5835;42.930;25.178;2023-07-16T09:09:42;32.80;1.00
11559;DHT22;5835;42.930;25.178;2023-07-16T09:12:12;33.20;1.00
11559;DHT22;5835;42.930;25.178;2023-07-16T09:14:41;33.30;1.00
11559;DHT22;5835;42.930;25.178;2023-07-16T09:17:10;33.10;1.00
11559;DHT22;5835;42.930;25.178;2023-07-16T09:19:37;33.20;1.00
11559;DHT22;5835;42.930;25.178;2023-07-16T09:22:05;33.70;1.00
11559;DHT22;5835;42.930;25.178;2023-07-16T09:24:32;34.50;1.00
11559;DHT22;5835;42.930;25.178;2023-07-16T09:27:00;34.60;1.00
11559;DHT22;5835;42.930;25.178;2023-07-16T09:29:28;34.50;1.00
11559;DHT22;5835;42.930;25.178;2023-07-16T09:31:56;35.00;1.00
11559;DHT22;5835;42.930;25.178;2023-07-16T09:34:27;35.30;1.00
11559;DHT22;5835;42.930;25.178;2023-07-16T09:36:55;35.40;1.00
11559;DHT22;5835;42.930;25.178;2023-07-16T09:39:23;35.90;1.00
11559;DHT22;5835;42.930;25.178;2023-07-16T09:41:52;35.10;1.00
11559;DHT22;5835;42.930;25.178;2023-07-16T09:44:22;35.10;1.00
11559;DHT22;5835;42.930;25.178;2023-07-16T09:46:49;35.70;1.00
11559;DHT22;5835;42.930;25.178;2023-07-16T09:49:17;36.10;1.00
11559;DHT22;5835;42.930;25.178;2023-07-16T09:51:48;36.80;1.00
11559;DHT22;5835;42.930;25.178;2023-07-16T09:54:20;37.00;1.00
11559;DHT22;5835;42.930;25.178;2023-07-16T09:56:50;36.90;1.00
11559;DHT22;5835;42.930;25.178;2023-07-16T09:59:23;36.80;1.00
11559;DHT22;5835;42.930;25.178;2023-07-16T10:01:52;37.20;1.00
11559;DHT22;5835;42.930;25.178;2023-07-16T10:04:20;37.10;1.00
11559;DHT22;5835;42.930;25.178;2023-07-16T10:06:59;37.00;1.00
11559;DHT22;5835;42.930;25.178;2023-07-16T10:09:38;37.50;1.00
11559;DHT22;5835;42.930;25.178;2023-07-16T10:12:13;37.70;1.00
11559;DHT22;5835;42.930;25.178;2023-07-16T10:14:42;37.90;1.00
11559;DHT22;5835;42.930;25.178;2023-07-16T10:17:14;37.80;1.00
11559;DHT22;5835;42.930;25.178;2023-07-16T10:19:49;38.20;1.00
11559;DHT22;5835;42.930;25.178;2023-07-16T10:22:19;38.10;1.00
11559;DHT22;5835;42.930;25.178;2023-07-16T10:24:58;38.30;1.00
11559;DHT22;5835;42.930;25.178;2023-07-16T10:27:32;38.70;1.00
11559;DHT22;5835;42.930;25.178;2023-07-16T10:30:01;38.80;1.00
11559;DHT22;5835;42.930;25.178;2023-07-16T10:32:30;38.60;1.00
11559;DHT22;5835;42.930;25.178;2023-07-16T10:34:58;38.60;1.00
11559;DHT22;5835;42.930;25.178;2023-07-16T10:37:28;38.90;1.00
11559;DHT22;5835;42.930;25.178;2023-07-16T10:39:58;38.90;1.00
11559;DHT22;5835;42.930;25.178;2023-07-16T10:42:27;39.40;1.00
11559;DHT22;5835;42.930;25.178;2023-07-16T10:44:57;39.80;1.00
11559;DHT22;5835;42.930;25.178;2023-07-16T10:47:29;38.90;1.00
11559;DHT22;5835;42.930;25.178;2023-07-16T10:49:58;39.30;1.00
11559;DHT22;5835;42.930;25.178;2023-07-16T10:52:27;39.60;1.00
11559;DHT22;5835;42.930;25.178;2023-07-16T10:54:54;39.80;1.00
11559;DHT22;5835;42.930;25.178;2023-07-16T10:57:24;40.00;1.00
11559;DHT22;5835;42.930;25.178;2023-07-16T10:59:52;39.50;1.00
11559;DHT22;5835;42.930;25.178;2023-07-16T11:02:21;40.00;1.00
11559;DHT22;5835;42.930;25.178;2023-07-16T11:04:50;40.10;99.90
11559;DHT22;5835;42.930;25.178;2023-07-16T11:07:19;40.50;99.90
11559;DHT22;5835;42.930;25.178;2023-07-16T11:09:50;40.80;1.00
11559;DHT22;5835;42.930;25.178;2023-07-16T11:12:19;41.00;99.90
11559;DHT22;5835;42.930;25.178;2023-07-16T11:14:48;40.90;99.90
11559;DHT22;5835;42.930;25.178;2023-07-16T11:17:16;41.00;99.90
11559;DHT22;5835;42.930;25.178;2023-07-16T11:19:46;41.00;99.90
11559;DHT22;5835;42.930;25.178;2023-07-16T11:22:14;41.10;99.90
11559;DHT22;5835;42.930;25.178;2023-07-16T11:24:44;41.20;99.90
11559;DHT22;5835;42.930;25.178;2023-07-16T11:27:17;41.50;99.90
11559;DHT22;5835;42.930;25.178;2023-07-16T11:29:48;41.40;99.90
11559;DHT22;5835;42.930;25.178;2023-07-16T11:32:27;41.60;99.90
11559;DHT22;5835;42.930;25.178;2023-07-16T11:34:55;42.30;99.90
11559;DHT22;5835;42.930;25.178;2023-07-16T11:37:25;42.30;99.90
11559;DHT22;5835;42.930;25.178;2023-07-16T11:39:55;41.00;99.90
11559;DHT22;5835;42.930;25.178;2023-07-16T11:42:28;40.90;99.90
11559;DHT22;5835;42.930;25.178;2023-07-16T11:44:56;41.00;99.90
11559;DHT22;5835;42.930;25.178;2023-07-16T11:47:24;40.70;99.90
11559;DHT22;5835;42.930;25.178;2023-07-16T11:49:52;40.80;99.90
11559;DHT22;5835;42.930;25.178;2023-07-16T11:52:20;41.60;99.90
11559;DHT22;5835;42.930;25.178;2023-07-16T11:54:48;41.70;99.90
11559;DHT22;5835;42.930;25.178;2023-07-16T11:57:16;42.20;99.90
11559;DHT22;5835;42.930;25.178;2023-07-16T11:59:45;42.70;99.90
11559;DHT22;5835;42.930;25.178;2023-07-16T12:02:13;42.90;99.90
11559;DHT22;5835;42.930;25.178;2023-07-16T12:04:41;43.00;99.90
11559;DHT22;5835;42.930;25.178;2023-07-16T12:07:08;43.40;99.90
11559;DHT22;5835;42.930;25.178;2023-07-16T12:09:36;43.00;99.90
11559;DHT22;5835;42.930;25.178;2023-07-16T12:12:05;42.90;99.90
11559;DHT22;5835;42.930;25.178;2023-07-16T12:14:33;42.10;99.90
11559;DHT22;5835;42.930;25.178;2023-07-16T12:17:02;42.20;99.90
11559;DHT22;5835;42.930;25.178;2023-07-16T12:19:30;42.50;99.90
11559;DHT22;5835;42.930;25.178;2023-07-16T12:21:59;42.70;99.90
11559;DHT22;5835;42.930;25.178;2023-07-16T12:24:26;42.50;99.90
11559;DHT22;5835;42.930;25.178;2023-07-16T12:26:54;43.20;99.90
11559;DHT22;5835;42.930;25.178;2023-07-16T12:29:21;41.70;99.90
11559;DHT22;5835;42.930;25.178;2023-07-16T12:31:49;40.50;99.90
11559;DHT22;5835;42.930;25.178;2023-07-16T12:34:18;40.90;99.90
11559;DHT22;5835;42.930;25.178;2023-07-16T12:36:46;40.60;99.90
11559;DHT22;5835;42.930;25.178;2023-07-16T12:39:14;41.80;99.90
11559;DHT22;5835;42.930;25.178;2023-07-16T12:41:42;42.90;99.90
11559;DHT22;5835;42.930;25.178;2023-07-16T12:44:10;43.90;99.90
11559;DHT22;5835;42.930;25.178;2023-07-16T12:46:37;43.80;99.90
11559;DHT22;5835;42.930;25.178;2023-07-16T12:49:05;43.90;99.90
11559;DHT22;5835;42.930;25.178;2023-07-16T12:51:34;43.60;99.90
11559;DHT22;5835;42.930;25.178;2023-07-16T12:54:01;43.30;99.90
11559;DHT22;5835;42.930;25.178;2023-07-16T12:56:30;41.90;99.90
11559;DHT22;5835;42.930;25.178;2023-07-16T12:58:58;40.50;99.90
11559;DHT22;5835;42.930;25.178;2023-07-16T13:01:26;40.10;99.90
11559;DHT22;5835;42.930;25.178;2023-07-16T13:03:53;40.90;99.90
11559;DHT22;5835;42.930;25.178;2023-07-16T13:06:21;41.90;99.90
11559;DHT22;5835;42.930;25.178;2023-07-16T13:08:50;43.10;99.90
11559;DHT22;5835;42.930;25.178;2023-07-16T13:11:18;43.20;99.90
11559;DHT22;5835;42.930;25.178;2023-07-16T13:13:45;42.90;99.90
11559;DHT22;5835;42.930;25.178;2023-07-16T13:16:13;42.20;99.90
11559;DHT22;5835;42.930;25.178;2023-07-16T13:18:40;42.90;99.90
11559;DHT22;5835;42.930;25.178;2023-07-16T13:21:08;43.30;99.90
11559;DHT22;5835;42.930;25.178;2023-07-16T13:23:35;43.40;99.90
11559;DHT22;5835;42.930;25.178;2023-07-16T13:26:04;43.60;99.90
11559;DHT22;5835;42.930;25.178;2023-07-16T13:28:32;43.40;99.90
11559;DHT22;5835;42.930;25.178;2023-07-16T13:31:00;43.40;99.90
11559;DHT22;5835;42.930;25.178;2023-07-16T13:33:28;42.60;99.90
11559;DHT22;5835;42.930;25.178;2023-07-16T13:35:56;41.60;99.90
11559;DHT22;5835;42.930;25.178;2023-07-16T13:38:27;40.60;99.90
11559;DHT22;5835;42.930;25.178;2023-07-16T13:40:54;39.70;99.90
11559;DHT22;5835;42.930;25.178;2023-07-16T13:43:23;39.20;99.90
11559;DHT22;5835;42.930;25.178;2023-07-16T13:45:51;39.10;99.90
11559;DHT22;5835;42.930;25.178;2023-07-16T13:48:18;38.80;99.90
11559;DHT22;5835;42.930;25.178;2023-07-16T13:50:46;38.90;99.90
11559;DHT22;5835;42.930;25.178;2023-07-16T13:53:14;39.20;99.90
11559;DHT22;5835;42.930;25.178;2023-07-16T13:55:41;39.00;99.90
11559;DHT22;5835;42.930;25.178;2023-07-16T13:58:10;38.70;99.90
11559;DHT22;5835;42.930;25.178;2023-07-16T14:00:39;38.70;99.90
11559;DHT22;5835;42.930;25.178;2023-07-16T14:03:07;39.40;99.90
11559;DHT22;5835;42.930;25.178;2023-07-16T14:05:34;39.40;99.90
11559;DHT22;5835;42.930;25.178;2023-07-16T14:08:05;39.10;99.90
11559;DHT22;5835;42.930;25.178;2023-07-16T14:10:33;38.70;99.90
11559;DHT22;5835;42.930;25.178;2023-07-16T14:13:00;38.80;99.90
11559;DHT22;5835;42.930;25.178;2023-07-16T14:15:28;38.90;99.90
11559;DHT22;5835;42.930;25.178;2023-07-16T14:17:57;38.90;99.90
11559;DHT22;5835;42.930;25.178;2023-07-16T14:20:25;38.60;99.90
11559;DHT22;5835;42.930;25.178;2023-07-16T14:22:52;39.20;99.90
11559;DHT22;5835;42.930;25.178;2023-07-16T14:25:20;38.90;99.90
11559;DHT22;5835;42.930;25.178;2023-07-16T14:27:47;38.70;99.90
11559;DHT22;5835;42.930;25.178;2023-07-16T14:30:16;38.50;99.90
11559;DHT22;5835;42.930;25.178;2023-07-16T14:32:43;38.40;99.90
11559;DHT22;5835;42.930;25.178;2023-07-16T14:35:12;38.10;99.90
11559;DHT22;5835;42.930;25.178;2023-07-16T14:37:40;38.50;99.90
11559;DHT22;5835;42.930;25.178;2023-07-16T14:40:09;38.90;99.90
11559;DHT22;5835;42.930;25.178;2023-07-16T14:42:36;39.30;99.90
11559;DHT22;5835;42.930;25.178;2023-07-16T14:45:05;39.10;99.90
11559;DHT22;5835;42.930;25.178;2023-07-16T14:47:33;39.40;99.90
11559;DHT22;5835;42.930;25.178;2023-07-16T14:50:01;39.30;99.90
11559;DHT22;5835;42.930;25.178;2023-07-16T14:52:30;39.40;99.90
11559;DHT22;5835;42.930;25.178;2023-07-16T14:54:58;39.40;99.90
11559;DHT22;5835;42.930;25.178;2023-07-16T14:57:26;40.10;99.90
11559;DHT22;5835;42.930;25.178;2023-07-16T14:59:53;40.70;99.90
11559;DHT22;5835;42.930;25.178;2023-07-16T15:02:21;41.00;99.90
11559;DHT22;5835;42.930;25.178;2023-07-16T15:04:48;41.40;99.90
11559;DHT22;5835;42.930;25.178;2023-07-16T15:07:16;41.60;99.90
11559;DHT22;5835;42.930;25.178;2023-07-16T15:09:45;41.80;99.90
11559;DHT22;5835;42.930;25.178;2023-07-16T15:12:13;41.30;99.90
11559;DHT22;5835;42.930;25.178;2023-07-16T15:14:40;41.70;99.90
11559;DHT22;5835;42.930;25.178;2023-07-16T15:17:08;42.10;99.90
11559;DHT22;5835;42.930;25.178;2023-07-16T15:19:35;42.00;99.90
11559;DHT22;5835;42.930;25.178;2023-07-16T15:22:03;41.60;99.90
11559;DHT22;5835;42.930;25.178;2023-07-16T15:24:31;41.90;99.90
11559;DHT22;5835;42.930;25.178;2023-07-16T15:27:00;41.70;99.90
11559;DHT22;5835;42.930;25.178;2023-07-16T15:29:28;41.40;99.90
11559;DHT22;5835;42.930;25.178;2023-07-16T15:31:56;41.30;99.90
11559;DHT22;5835;42.930;25.178;2023-07-16T15:34:24;41.40;99.90
11559;DHT22;5835;42.930;25.178;2023-07-16T15:36:51;41.80;99.90
11559;DHT22;5835;42.930;25.178;2023-07-16T15:39:19;42.60;99.90
11559;DHT22;5835;42.930;25.178;2023-07-16T15:41:46;42.10;99.90
11559;DHT22;5835;42.930;25.178;2023-07-16T15:44:15;41.50;99.90